createdAt,value
2022-12-16T00:01:56.937Z,19.83
2022-12-16T00:04:24.505Z,16.40
2022-12-16T00:09:30.898Z,14.75
2022-12-16T00:11:57.143Z,17.55
2022-12-16T00:14:24.037Z,17.73
2022-12-16T00:16:50.664Z,18.02
2022-12-16T00:19:18.767Z,16.80
2022-12-16T00:21:45.397Z,14.60
2022-12-16T00:24:11.614Z,17.45
2022-12-16T00:26:38.741Z,17.80
2022-12-16T00:29:05.873Z,17.75
2022-12-16T00:31:32.454Z,16.00
2022-12-16T00:33:58.791Z,16.67
2022-12-16T00:36:25.069Z,18.25
2022-12-16T00:38:51.700Z,17.67
2022-12-16T00:41:18.624Z,17.52
2022-12-16T00:43:44.978Z,19.17
2022-12-16T00:46:11.477Z,17.90
2022-12-16T00:48:37.854Z,17.50
2022-12-16T00:51:04.280Z,17.25
2022-12-16T00:53:31.394Z,17.73
2022-12-16T00:55:57.835Z,18.38
2022-12-16T00:58:24.227Z,20.83
2022-12-16T01:00:50.586Z,20.23
2022-12-16T01:03:21.719Z,16.70
2022-12-16T01:05:49.482Z,17.80
2022-12-16T01:08:17.972Z,17.70
2022-12-16T01:10:44.536Z,17.42
2022-12-16T01:13:22.648Z,17.65
2022-12-16T01:15:48.984Z,14.30
2022-12-16T01:18:15.338Z,16.83
2022-12-16T01:20:42.214Z,19.95
2022-12-16T01:23:08.522Z,15.20
2022-12-16T01:25:35.290Z,17.05
2022-12-16T01:28:01.805Z,17.45
2022-12-16T01:30:28.271Z,19.13
2022-12-16T01:32:55.092Z,16.73
2022-12-16T01:35:51.602Z,17.00
2022-12-16T01:38:08.326Z,16.92
2022-12-16T01:40:34.812Z,16.70
2022-12-16T01:43:01.140Z,16.88
2022-12-16T01:45:27.353Z,17.83
2022-12-16T01:47:53.625Z,13.77
2022-12-16T01:50:20.599Z,15.00
2022-12-16T01:52:46.788Z,13.93
2022-12-16T01:55:13.080Z,15.95
2022-12-16T01:57:39.694Z,17.35
2022-12-16T02:02:48.089Z,13.77
2022-12-16T02:05:16.158Z,16.42
2022-12-16T02:07:43.067Z,16.60
2022-12-16T02:10:09.428Z,15.20
2022-12-16T02:12:35.965Z,16.67
2022-12-16T02:15:02.304Z,15.38
2022-12-16T02:17:28.625Z,15.85
2022-12-16T02:19:55.327Z,14.80
2022-12-16T02:22:21.926Z,16.90
2022-12-16T08:26:05.113Z,37.17
2022-12-16T08:28:31.289Z,36.08
2022-12-16T08:30:57.436Z,35.50
2022-12-16T08:33:23.621Z,41.97
2022-12-16T08:35:49.750Z,43.50
2022-12-16T08:38:17.075Z,37.67
2022-12-16T08:40:43.249Z,39.17
2022-12-16T08:43:12.598Z,43.63
2022-12-16T08:45:39.011Z,40.78
2022-12-16T08:48:05.187Z,41.45
2022-12-16T08:50:31.314Z,43.10
2022-12-16T08:52:57.452Z,41.58
2022-12-16T08:55:27.791Z,40.72
2022-12-16T08:57:55.686Z,37.20
2022-12-16T09:00:22.364Z,38.33
2022-12-16T09:02:48.709Z,41.28
2022-12-16T09:05:14.962Z,38.03
2022-12-16T09:07:41.062Z,41.10
2022-12-16T09:10:07.193Z,38.10
2022-12-16T09:12:33.365Z,34.83
2022-12-16T09:14:59.478Z,33.95
2022-12-16T09:17:25.625Z,33.80
2022-12-16T09:19:51.785Z,37.08
2022-12-16T09:22:20.197Z,36.13
2022-12-16T09:24:46.336Z,34.58
2022-12-16T09:27:12.740Z,41.65
2022-12-16T09:29:43.459Z,43.38
2022-12-16T09:32:11.092Z,36.97
2022-12-16T09:34:37.213Z,38.45
2022-12-16T09:37:03.306Z,32.25
2022-12-16T09:39:29.425Z,36.03
2022-12-16T09:41:55.641Z,42.97
2022-12-16T09:44:21.776Z,36.85
2022-12-16T09:46:47.915Z,31.83
2022-12-16T09:49:14.082Z,33.13
2022-12-16T09:51:40.192Z,35.50
2022-12-16T09:54:06.310Z,33.83
2022-12-16T09:56:32.406Z,33.60
2022-12-16T09:58:58.549Z,35.40
2022-12-16T10:01:24.910Z,33.25
2022-12-16T10:03:51.188Z,30.40
2022-12-16T10:06:17.366Z,32.70
2022-12-16T10:08:43.519Z,29.50
2022-12-16T10:11:09.649Z,29.80
2022-12-16T10:13:36.098Z,32.15
2022-12-16T10:16:02.411Z,29.90
2022-12-16T10:18:28.696Z,29.45
2022-12-16T10:20:54.912Z,31.92
2022-12-16T10:23:21.458Z,32.92
2022-12-16T10:25:47.597Z,31.92
2022-12-16T10:28:13.709Z,36.58
2022-12-16T10:30:39.859Z,30.05
2022-12-16T10:33:06.010Z,38.67
2022-12-16T10:35:32.145Z,41.38
2022-12-16T10:37:58.302Z,40.70
2022-12-16T10:40:24.443Z,36.30
2022-12-16T10:42:50.538Z,31.17
2022-12-16T10:45:16.675Z,40.25
2022-12-16T10:47:42.843Z,31.25
2022-12-16T10:50:09.088Z,35.10
2022-12-16T10:52:35.391Z,34.08
2022-12-16T10:55:01.538Z,31.50
2022-12-16T10:57:27.651Z,34.97
2022-12-16T10:59:53.789Z,36.13
2022-12-16T11:02:20.751Z,36.15
2022-12-16T11:04:47.054Z,31.92
2022-12-16T11:07:13.186Z,32.85
2022-12-16T11:09:39.308Z,33.35
2022-12-16T11:12:05.429Z,32.45
2022-12-16T11:14:31.541Z,35.00
2022-12-16T11:16:57.702Z,37.28
2022-12-16T11:19:23.802Z,39.03
2022-12-16T11:21:49.921Z,31.85
2022-12-16T11:24:17.125Z,36.33
2022-12-16T11:26:43.249Z,34.60
2022-12-16T11:29:09.361Z,34.47
2022-12-16T11:31:35.567Z,31.67
2022-12-16T11:34:01.774Z,34.97
2022-12-16T11:36:27.929Z,35.65
2022-12-16T11:38:54.036Z,33.50
2022-12-16T11:41:21.908Z,32.25
2022-12-16T11:43:47.996Z,37.05
2022-12-16T11:46:14.202Z,35.70
2022-12-16T11:48:40.347Z,35.03
2022-12-16T11:51:06.457Z,34.30
2022-12-16T11:53:32.991Z,36.08
2022-12-16T11:56:11.144Z,35.97
2022-12-16T11:58:40.252Z,35.45
2022-12-16T12:01:06.364Z,37.08
2022-12-16T12:03:33.059Z,37.97
2022-12-16T12:05:59.546Z,34.03
2022-12-16T12:08:25.672Z,39.90
2022-12-16T12:10:51.769Z,36.35
2022-12-16T12:13:17.892Z,35.25
2022-12-16T12:15:44.006Z,35.95
2022-12-16T12:18:10.126Z,37.63
2022-12-16T12:20:36.328Z,37.38
2022-12-16T12:23:02.449Z,36.20
2022-12-16T12:25:28.572Z,36.40
2022-12-16T12:27:54.817Z,33.78
2022-12-16T12:30:20.943Z,36.15
2022-12-16T12:32:47.080Z,35.22
2022-12-16T12:35:13.203Z,37.85
2022-12-16T12:37:39.297Z,32.72
2022-12-16T12:40:05.429Z,32.92
2022-12-16T12:42:31.535Z,36.28
2022-12-16T12:44:57.837Z,34.42
2022-12-16T12:47:23.974Z,35.20
2022-12-16T12:49:50.100Z,40.55
2022-12-16T12:52:17.243Z,38.28
2022-12-16T12:54:43.377Z,41.15
2022-12-16T12:57:09.481Z,36.80
2022-12-16T12:59:35.615Z,35.90
2022-12-16T13:02:01.931Z,34.60
2022-12-16T13:04:28.278Z,33.47
2022-12-16T13:06:54.379Z,36.00
2022-12-16T13:09:21.598Z,33.03
2022-12-16T13:11:47.725Z,30.45
2022-12-16T13:14:13.884Z,36.50
2022-12-16T13:16:40.059Z,37.00
2022-12-16T13:19:09.539Z,34.78
2022-12-16T13:21:36.066Z,30.33
2022-12-16T13:24:02.170Z,34.28
2022-12-16T13:26:28.296Z,36.17
2022-12-16T13:28:54.395Z,33.30
2022-12-16T13:31:25.199Z,32.95
2022-12-16T13:33:51.860Z,35.17
2022-12-16T13:36:17.977Z,32.53
2022-12-16T13:38:44.103Z,33.35
2022-12-16T13:41:10.233Z,35.25
2022-12-16T13:43:36.459Z,33.05
2022-12-16T13:46:02.917Z,35.53
2022-12-16T13:48:29.130Z,37.05
2022-12-16T13:50:55.270Z,29.48
2022-12-16T13:53:21.670Z,32.30
2022-12-16T13:55:47.835Z,32.55
2022-12-16T13:58:13.957Z,34.70
2022-12-16T14:00:40.171Z,34.05
2022-12-16T14:03:06.374Z,31.63
2022-12-16T14:05:32.530Z,32.13
2022-12-16T14:07:58.660Z,29.00
2022-12-16T14:10:24.794Z,32.90
2022-12-16T14:12:50.932Z,34.33
2022-12-16T14:15:17.059Z,31.25
2022-12-16T14:17:43.173Z,31.40
2022-12-16T14:20:09.314Z,35.10
2022-12-16T14:22:35.427Z,33.78
2022-12-16T14:25:01.565Z,28.67
2022-12-16T14:27:27.680Z,30.80
2022-12-16T14:29:53.784Z,31.95
2022-12-16T14:32:20.068Z,29.77
2022-12-16T14:34:46.262Z,30.75
2022-12-16T14:37:12.409Z,27.23
2022-12-16T14:39:38.514Z,30.02
2022-12-16T14:42:04.628Z,27.30
2022-12-16T14:44:30.757Z,30.83
2022-12-16T14:46:56.892Z,32.45
2022-12-16T14:49:23.019Z,34.35
2022-12-16T14:51:49.114Z,31.13
2022-12-16T14:54:15.252Z,30.85
2022-12-16T14:56:41.386Z,29.95
2022-12-16T14:59:07.500Z,32.90
2022-12-16T15:01:33.833Z,28.58
2022-12-16T15:04:00.233Z,27.80
2022-12-16T15:06:26.461Z,33.30
2022-12-16T15:08:52.578Z,37.08
2022-12-16T15:11:18.696Z,24.80
2022-12-16T15:13:44.796Z,29.70
2022-12-16T15:16:10.905Z,28.40
2022-12-16T15:18:37.047Z,28.20
2022-12-16T15:21:03.157Z,29.75
2022-12-16T15:23:29.269Z,33.78
2022-12-16T15:25:59.243Z,28.30
2022-12-16T15:28:28.347Z,34.38
2022-12-16T15:30:54.558Z,29.50
2022-12-16T15:33:20.726Z,28.60
2022-12-16T15:35:46.851Z,27.27
2022-12-16T15:38:12.985Z,32.05
2022-12-16T15:40:39.107Z,32.70
2022-12-16T15:43:05.239Z,29.30
2022-12-16T15:45:31.406Z,34.05
2022-12-16T15:47:57.515Z,28.35
2022-12-16T15:50:23.715Z,31.17
2022-12-16T15:52:49.883Z,30.40
2022-12-16T15:55:16.005Z,27.27
2022-12-16T15:57:42.127Z,31.15
2022-12-16T16:00:08.236Z,26.75
2022-12-16T16:02:34.529Z,26.55
2022-12-16T16:05:00.748Z,25.92
2022-12-16T16:07:26.872Z,27.02
2022-12-16T16:09:52.964Z,25.60
2022-12-16T16:12:20.979Z,30.25
2022-12-16T16:14:47.080Z,27.33
2022-12-16T16:17:13.218Z,23.65
2022-12-16T16:19:39.331Z,23.95
2022-12-16T16:22:05.465Z,23.13
2022-12-16T16:27:11.755Z,26.77
2022-12-16T16:29:37.867Z,25.98
2022-12-16T16:32:04.684Z,24.63
2022-12-16T16:34:30.980Z,25.45
2022-12-16T16:36:57.083Z,24.00
2022-12-16T16:39:23.221Z,26.73
2022-12-16T16:41:49.335Z,23.92
2022-12-16T16:44:19.579Z,27.58
2022-12-16T16:46:46.291Z,22.90
2022-12-16T16:49:12.609Z,24.00
2022-12-16T16:51:38.716Z,27.17
2022-12-16T16:54:04.861Z,23.10
2022-12-16T16:56:30.953Z,26.77
2022-12-16T16:58:57.077Z,30.90
2022-12-16T17:01:23.292Z,25.48
2022-12-16T17:03:49.786Z,29.60
2022-12-16T17:06:16.045Z,27.65
2022-12-16T17:08:42.163Z,27.08
2022-12-16T17:11:08.272Z,28.30
2022-12-16T17:13:34.677Z,29.33
2022-12-16T17:16:01.067Z,25.73
2022-12-16T17:18:27.203Z,30.48
2022-12-16T17:20:53.335Z,27.92
2022-12-16T17:23:19.473Z,31.02
2022-12-16T17:25:45.605Z,27.15
2022-12-16T17:28:11.723Z,29.10
2022-12-16T17:30:40.794Z,28.25
2022-12-16T17:33:11.239Z,28.23
2022-12-16T17:35:37.355Z,26.98
2022-12-16T17:38:03.472Z,29.10
2022-12-16T17:40:29.652Z,26.60
2022-12-16T17:42:55.753Z,28.15
2022-12-16T17:45:21.871Z,28.58
2022-12-16T17:47:47.967Z,29.30
2022-12-16T17:50:14.092Z,29.60
2022-12-16T17:52:40.203Z,25.88
2022-12-16T17:55:06.356Z,30.88
2022-12-16T17:57:32.485Z,31.55
2022-12-16T18:02:42.453Z,30.53
2022-12-16T18:05:08.788Z,27.42
2022-12-16T18:07:34.897Z,28.15
2022-12-16T18:10:00.987Z,28.63
2022-12-16T18:12:27.110Z,32.35
2022-12-16T18:14:53.216Z,34.58
2022-12-16T18:17:19.381Z,34.10
2022-12-16T18:19:45.485Z,32.25
2022-12-16T18:22:11.630Z,34.70
2022-12-16T18:24:37.730Z,41.05
2022-12-16T18:27:03.852Z,34.50
2022-12-16T18:29:29.950Z,34.33
2022-12-16T18:31:56.124Z,34.47
2022-12-16T18:34:22.253Z,36.92
2022-12-16T18:36:48.362Z,34.28
2022-12-16T18:39:14.464Z,36.10
2022-12-16T18:41:40.592Z,36.30
2022-12-16T18:44:06.723Z,33.20
2022-12-16T18:46:32.856Z,34.13
2022-12-16T18:48:58.983Z,35.47
2022-12-16T18:51:25.102Z,31.92
2022-12-16T18:53:51.224Z,33.42
2022-12-16T18:56:17.716Z,37.65
2022-12-16T18:58:59.383Z,34.95
2022-12-16T19:01:25.651Z,27.33
2022-12-16T19:03:51.890Z,29.60
2022-12-16T19:06:18.024Z,32.60
2022-12-16T19:08:44.144Z,33.17
2022-12-16T19:11:10.257Z,31.40
2022-12-16T19:13:36.379Z,32.90
2022-12-16T19:16:02.544Z,29.60
2022-12-16T19:18:28.719Z,32.42
2022-12-16T19:20:54.833Z,33.30
2022-12-16T19:23:22.985Z,27.98
2022-12-16T19:25:49.098Z,32.97
2022-12-16T19:28:15.221Z,38.60
2022-12-16T19:30:41.369Z,30.02
2022-12-16T19:33:07.482Z,25.42
2022-12-16T19:35:33.599Z,31.30
2022-12-16T19:37:59.718Z,29.98
2022-12-16T19:40:25.835Z,30.50
2022-12-16T19:42:51.986Z,35.08
2022-12-16T19:45:18.106Z,36.00
2022-12-16T19:47:44.241Z,35.53
2022-12-16T19:50:10.364Z,38.53
2022-12-16T19:52:36.520Z,33.83
2022-12-16T19:55:02.674Z,31.30
2022-12-16T19:57:28.784Z,35.50
2022-12-16T19:59:55.989Z,37.20
2022-12-16T20:02:22.338Z,30.92
2022-12-16T20:04:48.600Z,36.17
2022-12-16T20:07:17.820Z,31.13
2022-12-16T20:09:47.755Z,35.88
2022-12-16T20:12:13.912Z,37.45
2022-12-16T20:14:40.023Z,33.90
2022-12-16T20:17:06.177Z,36.50
2022-12-16T20:19:32.305Z,29.67
2022-12-16T20:27:24.781Z,29.13
2022-12-16T20:29:51.591Z,32.10
2022-12-16T20:32:17.772Z,28.02
2022-12-16T20:34:43.873Z,30.88
2022-12-16T20:37:10.006Z,35.47
2022-12-16T20:39:36.146Z,27.70
2022-12-16T20:42:02.264Z,30.23
2022-12-16T20:44:28.395Z,29.98
2022-12-16T20:46:56.246Z,32.30
2022-12-16T20:49:22.591Z,37.03
2022-12-16T20:51:48.713Z,33.90
2022-12-16T20:54:14.833Z,29.70
2022-12-16T20:56:40.948Z,33.38
2022-12-16T20:59:07.056Z,31.95
2022-12-16T21:01:33.318Z,34.67
2022-12-16T21:03:59.561Z,36.20
2022-12-16T21:06:25.684Z,34.28
2022-12-16T21:08:51.816Z,31.38
2022-12-16T21:11:17.948Z,31.83
2022-12-16T21:13:44.374Z,34.22
2022-12-16T21:16:10.790Z,32.40
2022-12-16T21:18:36.896Z,34.28
2022-12-16T21:21:03.002Z,37.45
2022-12-16T21:23:29.132Z,36.60
2022-12-16T21:25:55.271Z,32.47
2022-12-16T21:28:22.143Z,32.47
2022-12-16T21:30:51.670Z,36.40
2022-12-16T21:33:17.848Z,30.38
2022-12-16T21:35:45.150Z,35.85
2022-12-16T21:38:11.326Z,30.13
2022-12-16T21:40:37.470Z,31.33
2022-12-16T21:43:03.577Z,29.33
2022-12-16T21:45:29.890Z,29.33
2022-12-16T21:47:56.056Z,24.60
2022-12-16T21:50:22.249Z,29.67
2022-12-16T21:52:48.398Z,31.02
2022-12-16T21:55:14.528Z,29.38
2022-12-16T21:57:40.733Z,27.80
2022-12-16T22:00:06.861Z,26.40
2022-12-16T22:02:33.005Z,26.38
2022-12-16T22:04:59.154Z,29.58
2022-12-16T22:07:25.444Z,30.90
2022-12-16T22:09:51.642Z,26.00
2022-12-16T22:12:17.897Z,27.55
2022-12-16T22:14:44.006Z,31.10
2022-12-16T22:17:10.170Z,31.48
2022-12-16T22:19:36.300Z,25.40
2022-12-16T22:22:02.422Z,34.50
2022-12-16T22:24:28.561Z,29.30
2022-12-16T22:26:56.431Z,28.13
2022-12-16T22:29:22.873Z,29.30
2022-12-16T22:31:49.051Z,28.98
2022-12-16T22:34:15.176Z,24.73
2022-12-16T22:36:41.339Z,25.90
2022-12-16T22:39:07.452Z,21.50
2022-12-16T22:41:33.551Z,24.02
2022-12-16T22:43:59.670Z,25.27
2022-12-16T22:46:25.802Z,24.92
2022-12-16T22:48:51.974Z,21.63
2022-12-16T22:51:18.154Z,25.00
2022-12-16T22:53:44.949Z,24.20
2022-12-16T22:56:11.539Z,24.35
2022-12-16T22:58:37.669Z,26.77
2022-12-16T23:01:03.767Z,25.52
2022-12-16T23:03:29.873Z,24.40
2022-12-16T23:05:56.331Z,26.73
2022-12-16T23:08:22.492Z,22.17
2022-12-16T23:10:48.636Z,21.23
2022-12-16T23:13:14.747Z,24.35
2022-12-16T23:15:40.943Z,25.02
2022-12-16T23:18:07.059Z,23.13
2022-12-16T23:20:33.185Z,23.25
2022-12-16T23:22:59.324Z,21.85
2022-12-16T23:25:25.481Z,24.23
2022-12-16T23:27:51.594Z,23.25
2022-12-16T23:30:18.097Z,21.88
2022-12-16T23:32:44.232Z,25.02
2022-12-16T23:35:10.375Z,22.10
2022-12-16T23:37:36.493Z,24.05
2022-12-16T23:40:02.618Z,21.65
2022-12-16T23:42:28.874Z,21.92
2022-12-16T23:44:56.481Z,19.40
2022-12-16T23:47:22.848Z,22.08
2022-12-16T23:49:49.003Z,21.50
2022-12-16T23:52:15.118Z,24.90
2022-12-16T23:54:41.315Z,19.98
2022-12-16T23:57:07.459Z,19.50
2022-12-16T23:59:33.596Z,20.27
